KSAV

Savannah / Hilton Head International Airport

Savannah, Georgia, USA
METAR KSAV 170953Z AUTO 00000KT 10SM CLR 02/01 A3024 RMK AO2 SLP241 T00170006
Observed Flight Rules
Jan-17 @ 09:53 UTC (41 minutes ago) Visual Flight Rules
Wind Visibility Clouds
Calm 10 miles
  • Clear skies
Temperatures Readings
Current 2°C / 36°F
Dewpoint 1°C / 34°F
Humidity 93%
Altimeter 30.24" Hg
Pressure 1024.1 hPa
Elevation 14
METAR KSAV 170953Z AUTO 00000KT 10SM CLR 02/01 A3024 RMK AO2 SLP241 T00170006
Observed Flight Rules
Jan-17 @ 09:53 UTC
(41 minutes ago)
VFR
Wind Visibility
Calm 10 miles
Clouds
  • Clear skies
Temperature Dewpoint
2°C / 36°F 1°C / 34°F
Humidity Altimeter Pressure
93% 30.24" Hg 1024.1 hPa